Robertsonville, Canada
Current Conditions -  °F | °C
As of 5:00 AM on Wednesday 22 Oct 2014 (Local Time) from CYQB Reporting Station
Overcast Overcast  
Wind Chill: 38°   Ceiling: 7000
Heat Index: 45°   Visibility: 15mi
Dew Point: 32°   Wind: 14mph
Humidity: 61%   Direction: 60°ENE
Pressure: 30.3"   Gusts: NA
Location:  46.13°N, 71.22°W
Report Text: CYQB 220900Z 06012KT 15SM OVC070 07/M00 A3030 RMK AC8 SLP264
Loading
Personal Weather Stations






























Interactive Weather Map
Tropical Storm Tracking
New forecast layout! Learn more

10-Day Weather Forecast

Advertisements
Track Severe Weather on mobile